Time;durP1;ratioP1;P1;durP2;ratioP2;P2;SDS_P1;SDS_P2;PMS_P1;PMS_P2;Temp;Humidity;BMP_temperature;BMP_pressure;BME280_temperature;BME280_humidity;BME280_pressure;Samples;Min_cycle;Max_cycle;Signal;HPM_P1;HPM_P2
2021/12/07 00:00:55;;;;;;;3.83;1.42;;;;;;;17.86;50.48;100390.03;5091469;28;20499;-65
2021/12/07 00:03:20;;;;;;;3.17;1.15;;;;;;;17.83;50.63;100393.78;5092328;28;20035;-65
2021/12/07 00:05:47;;;;;;;3.22;1.23;;;;;;;17.82;50.27;100404.44;5091915;28;20030;-65
2021/12/07 00:08:12;;;;;;;4.63;1.55;;;;;;;17.79;50.26;100405.53;5091368;28;20482;-65
2021/12/07 00:10:38;;;;;;;4.20;1.38;;;;;;;17.77;50.47;100407.47;5092352;28;20028;-65
2021/12/07 00:13:04;;;;;;;3.40;1.50;;;;;;;17.74;50.41;100407.75;5092058;28;20016;-65
2021/12/07 00:15:30;;;;;;;3.22;1.40;;;;;;;17.72;50.48;100404.38;5091082;28;20121;-65
2021/12/07 00:17:56;;;;;;;5.07;1.60;;;;;;;17.69;50.63;100410.78;5091781;28;20109;-66
2021/12/07 00:20:22;;;;;;;3.97;1.50;;;;;;;17.66;50.42;100410.22;5092016;28;20032;-65
2021/12/07 00:22:50;;;;;;;3.60;1.40;;;;;;;17.64;50.03;100415.63;5091100;28;20022;-65
2021/12/07 00:25:16;;;;;;;5.15;1.80;;;;;;;17.62;50.70;100419.34;5092180;28;20077;-66
2021/12/07 00:27:42;;;;;;;6.22;1.60;;;;;;;17.59;50.32;100420.41;5091497;28;20028;-65
2021/12/07 00:30:10;;;;;;;2.45;1.20;;;;;;;17.55;50.41;100414.59;5091268;28;20095;-65
2021/12/07 00:32:40;;;;;;;3.85;1.58;;;;;;;17.54;50.68;100412.91;5091911;28;20039;-65
2021/12/07 00:37:53;;;;;;;3.97;1.60;;;;;;;17.49;50.29;100430.91;5091859;28;20028;-66
2021/12/07 00:40:20;;;;;;;3.25;1.45;;;;;;;17.47;50.31;100434.66;5095619;28;20039;-65
2021/12/07 00:42:48;;;;;;;4.68;1.88;;;;;;;17.45;50.34;100439.19;5094470;28;20024;-66
2021/12/07 00:45:18;;;;;;;3.38;1.55;;;;;;;17.43;50.50;100449.03;5095167;28;20043;-65
2021/12/07 00:47:43;;;;;;;3.05;1.48;;;;;;;17.40;50.77;100442.22;5095329;28;20031;-66
2021/12/07 00:50:09;;;;;;;5.22;1.70;;;;;;;17.39;50.61;100445.84;5094785;28;20028;-65
2021/12/07 00:52:35;;;;;;;4.47;1.80;;;;;;;17.37;50.47;100455.66;5095312;28;20432;-66
2021/12/07 00:55:02;;;;;;;3.95;2.10;;;;;;;17.34;50.24;100458.53;5094817;28;20486;-66
2021/12/07 00:57:28;;;;;;;4.18;1.60;;;;;;;17.32;50.43;100466.59;5094518;28;20020;-65
2021/12/07 00:59:53;;;;;;;3.90;1.80;;;;;;;17.29;50.23;100464.22;5094738;28;20028;-65
2021/12/07 01:02:19;;;;;;;3.10;1.60;;;;;;;17.27;50.36;100471.41;5095185;28;20028;-65
2021/12/07 01:04:51;;;;;;;3.92;1.83;;;;;;;17.26;50.46;100472.38;5094233;28;20276;-65
2021/12/07 01:07:47;;;;;;;4.43;1.80;;;;;;;17.23;50.42;100470.81;5094795;28;20032;-65
2021/12/07 01:26:10;;;;;;;4.40;1.60;;;;;;;17.18;52.32;100520.41;5094046;28;20153;-66
2021/12/07 01:28:41;;;;;;;4.97;1.70;;;;;;;17.21;52.15;100522.78;5094501;28;20107;-65
2021/12/07 01:31:18;;;;;;;3.63;1.50;;;;;;;17.22;52.40;100527.06;5093885;28;20280;-66
2021/12/07 01:34:00;;;;;;;4.15;1.63;;;;;;;17.26;52.19;100522.41;5093503;28;20036;-65
2021/12/07 01:37:04;;;;;;;4.18;1.75;;;;;;;17.28;52.37;100528.38;5094355;28;20039;-66
2021/12/07 01:45:23;;;;;;;6.18;1.65;;;;;;;17.33;52.16;100547.28;5093953;28;20435;-66
2021/12/07 01:50:40;;;;;;;4.60;1.70;;;;;;;17.33;51.90;100551.72;5094215;28;20028;-64
2021/12/07 02:01:08;;;;;;;5.25;1.60;;;;;;;17.34;51.68;100561.28;5093108;28;20510;-65
2021/12/07 02:03:34;;;;;;;3.70;1.50;;;;;;;17.33;51.34;100564.88;5093825;28;20020;-65
2021/12/07 02:05:59;;;;;;;4.22;1.48;;;;;;;17.33;51.50;100567.53;5093546;28;20487;-65
2021/12/07 02:08:25;;;;;;;4.60;1.52;;;;;;;17.32;51.39;100573.75;5092906;28;20031;-65
2021/12/07 02:10:54;;;;;;;6.32;1.67;;;;;;;17.32;51.12;100579.00;5093280;28;20048;-65
2021/12/07 02:14:02;;;;;;;5.60;1.73;;;;;;;17.30;51.55;100588.84;5093814;28;20020;-65
2021/12/07 02:16:07;;;;;;;4.13;1.25;;;;;;;17.31;51.44;100580.81;5092632;28;20044;-66
2021/12/07 02:18:36;;;;;;;4.55;1.52;;;;;;;17.31;52.13;100583.44;5093560;28;20042;-65
2021/12/07 02:21:16;;;;;;;4.45;1.77;;;;;;;17.32;52.22;100590.41;5092354;28;20020;-66
2021/12/07 02:23:45;;;;;;;4.72;1.35;;;;;;;17.33;52.25;100589.41;5093129;28;20036;-65
2021/12/07 02:26:10;;;;;;;3.42;1.30;;;;;;;17.36;52.19;100598.88;5093481;28;20115;-64
2021/12/07 02:28:39;;;;;;;5.70;1.70;;;;;;;17.37;52.03;100611.94;5091836;28;20115;-65
2021/12/07 02:31:05;;;;;;;4.03;1.48;;;;;;;17.37;52.13;100598.75;5093432;28;20438;-67
2021/12/07 02:33:31;;;;;;;6.03;1.65;;;;;;;17.37;51.88;100597.91;5093361;28;20380;-66
2021/12/07 02:35:57;;;;;;;5.25;1.40;;;;;;;17.39;51.65;100611.81;5092568;28;20031;-66
2021/12/07 02:38:22;;;;;;;5.18;1.55;;;;;;;17.38;51.71;100621.47;5093406;28;20028;-67
2021/12/07 02:40:48;;;;;;;4.57;1.20;;;;;;;17.37;51.79;100622.47;5093100;28;20056;-67
2021/12/07 02:43:14;;;;;;;5.10;1.30;;;;;;;17.37;51.86;100622.47;5092962;28;20032;-67
2021/12/07 02:45:39;;;;;;;4.80;1.30;;;;;;;17.36;51.79;100623.41;5093105;28;20036;-66
2021/12/07 02:48:04;;;;;;;5.55;1.30;;;;;;;17.35;51.45;100629.63;5093224;28;20046;-66
2021/12/07 02:50:30;;;;;;;4.18;1.40;;;;;;;17.33;51.50;100628.94;5092168;28;20027;-66
2021/12/07 02:52:58;;;;;;;5.00;1.30;;;;;;;17.34;51.25;100642.94;5092930;28;20379;-68
2021/12/07 02:55:23;;;;;;;4.85;1.27;;;;;;;17.32;51.50;100640.44;5093260;28;20036;-66
2021/12/07 02:57:49;;;;;;;6.38;1.42;;;;;;;17.33;51.78;100644.72;5092109;28;20024;-70
2021/12/07 03:00:20;;;;;;;4.97;1.27;;;;;;;17.35;52.16;100653.34;5093110;28;20121;-66
2021/12/07 03:02:54;;;;;;;4.68;1.35;;;;;;;17.36;51.95;100654.19;5092429;28;20089;-67
2021/12/07 03:05:34;;;;;;;;;;;;;;;17.36;52.22;100662.09;5092722;28;20039;-65
2021/12/07 03:26:59;;;;;;;5.15;1.42;;;;;;;17.41;52.08;100681.00;5092428;28;20131;-66
2021/12/07 03:29:24;;;;;;;3.70;1.13;;;;;;;17.42;52.13;100680.03;5092644;28;20471;-66
2021/12/07 03:31:49;;;;;;;4.97;1.40;;;;;;;17.43;52.16;100681.69;5091816;28;20028;-64
2021/12/07 03:34:15;;;;;;;5.00;1.23;;;;;;;17.44;52.16;100690.47;5092579;28;20127;-65
2021/12/07 03:36:40;;;;;;;6.13;1.30;;;;;;;17.44;51.83;100686.03;5092097;28;20036;-65
2021/12/07 03:39:06;;;;;;;4.80;1.30;;;;;;;17.46;52.01;100699.06;5091450;28;20028;-66
2021/12/07 03:41:32;;;;;;;5.18;1.60;;;;;;;17.46;52.08;100706.97;5091772;28;20491;-65
2021/12/07 03:43:57;;;;;;;6.25;1.48;;;;;;;17.46;51.79;100713.06;5091672;28;20039;-65
2021/12/07 03:46:23;;;;;;;5.90;1.40;;;;;;;17.46;51.67;100715.72;5091192;28;20032;-66
2021/12/07 03:48:49;;;;;;;6.22;1.55;;;;;;;17.45;51.61;100726.38;5091455;28;20043;-66
2021/12/07 03:51:15;;;;;;;5.78;1.70;;;;;;;17.45;51.46;100729.00;5091961;28;20028;-66
2021/12/07 03:53:41;;;;;;;5.85;1.27;;;;;;;17.43;51.42;100709.84;5091165;28;20055;-65
2021/12/07 03:56:13;;;;;;;6.50;1.50;;;;;;;17.44;51.41;100715.00;5092102;28;20467;-67
2021/12/07 03:58:39;;;;;;;4.88;1.27;;;;;;;17.44;52.08;100722.91;5092101;28;20047;-65
2021/12/07 04:01:07;;;;;;;4.10;1.30;;;;;;;17.43;51.82;100720.38;5091206;28;20051;-66
2021/12/07 04:03:35;;;;;;;5.05;1.23;;;;;;;17.46;51.91;100722.78;5092230;28;20043;-65
2021/12/07 04:06:05;;;;;;;5.78;1.38;;;;;;;17.46;51.97;100715.72;5091730;28;20483;-66
2021/12/07 04:08:34;;;;;;;3.70;1.27;;;;;;;17.46;51.66;100715.72;5091868;28;20043;-64
2021/12/07 04:10:59;;;;;;;4.97;1.50;;;;;;;17.46;51.60;100718.34;5091736;28;20465;-65
2021/12/07 04:13:28;;;;;;;4.57;1.42;;;;;;;17.47;51.79;100727.94;5092062;28;20023;-65
2021/12/07 04:15:53;;;;;;;6.88;1.58;;;;;;;17.47;51.54;100729.75;5095158;28;20083;-66
2021/12/07 04:18:27;;;;;;;5.50;1.33;;;;;;;17.47;51.80;100732.38;5096067;28;20063;-65
2021/12/07 04:20:53;;;;;;;6.88;1.40;;;;;;;17.47;52.00;100727.09;5094824;28;20128;-65
2021/12/07 04:23:18;;;;;;;5.60;1.13;;;;;;;17.48;52.24;100734.88;5095673;28;20036;-66
2021/12/07 04:25:43;;;;;;;9.02;1.63;;;;;;;17.49;52.20;100744.44;5095212;28;20031;-65
2021/12/07 04:28:10;;;;;;;5.35;1.25;;;;;;;17.49;51.72;100733.91;5094719;28;20066;-67
2021/12/07 04:30:38;;;;;;;5.95;1.48;;;;;;;17.50;51.67;100737.38;5095763;28;20108;-65
2021/12/07 04:33:06;;;;;;;3.53;1.08;;;;;;;17.50;51.58;100746.13;5095244;28;20507;-65
2021/12/07 04:35:32;;;;;;;3.78;1.08;;;;;;;17.50;51.23;100747.91;5094698;28;20028;-65
2021/12/07 04:37:58;;;;;;;7.53;2.03;;;;;;;17.50;51.60;100742.63;5095037;28;20467;-65
2021/12/07 04:40:25;;;;;;;4.95;1.13;;;;;;;17.49;51.50;100744.44;5095344;28;20027;-65
2021/12/07 04:42:52;;;;;;;6.35;1.35;;;;;;;17.48;51.58;100755.97;5094164;28;20023;-66
2021/12/07 04:45:48;;;;;;;5.82;1.40;;;;;;;17.49;51.44;100767.34;5095211;28;20498;-66
2021/12/07 04:59:12;;;;;;;;;;;;;;;17.48;51.94;100773.53;5095836;28;20046;-65
2021/12/07 05:01:37;;;;;;;6.73;1.63;;;;;;;17.50;51.56;100755.81;5094871;28;19916;-66
2021/12/07 05:04:10;;;;;;;4.05;1.23;;;;;;;17.49;51.71;100759.44;5094024;28;20332;-66
2021/12/07 05:06:41;;;;;;;7.05;1.05;;;;;;;17.49;51.71;100775.22;5095197;28;20040;-66
2021/12/07 05:09:27;;;;;;;5.60;1.20;;;;;;;17.45;51.49;100766.75;5094848;28;20376;-65
2021/12/07 05:12:16;;;;;;;5.43;1.40;;;;;;;17.47;51.75;100787.69;5093563;28;20017;-65
2021/12/07 05:14:43;;;;;;;4.75;1.90;;;;;;;17.47;52.07;100780.63;5094320;28;20052;-65
2021/12/07 05:25:27;;;;;;;4.85;1.40;;;;;;;17.47;51.81;100785.91;5093187;28;20038;-66
2021/12/07 05:38:45;;;;;;;5.15;1.10;;;;;;;17.47;51.92;100825.41;5093320;28;20077;-66
2021/12/07 05:41:10;;;;;;;5.43;1.33;;;;;;;17.47;51.98;100816.69;5094141;28;20028;-67
2021/12/07 05:43:36;;;;;;;3.85;1.13;;;;;;;17.48;52.09;100834.16;5094390;28;20074;-66
2021/12/07 05:46:05;;;;;;;4.18;1.65;;;;;;;17.49;52.10;100834.03;5093069;28;20024;-65
2021/12/07 05:48:31;;;;;;;6.50;1.45;;;;;;;17.48;51.52;100837.63;5094004;28;20569;-66
2021/12/07 05:50:56;;;;;;;5.60;1.30;;;;;;;17.48;51.72;100835.00;5093608;28;20103;-65
2021/12/07 05:53:21;;;;;;;4.55;1.45;;;;;;;17.49;51.49;100847.19;5093207;28;20024;-65
2021/12/07 05:55:47;;;;;;;6.35;1.90;;;;;;;17.49;51.48;100843.75;5093546;28;20387;-66
2021/12/07 05:58:16;;;;;;;6.88;1.70;;;;;;;17.48;51.32;100853.44;5094081;28;20167;-65
2021/12/07 06:00:44;;;;;;;5.40;1.20;;;;;;;17.48;51.13;100853.44;5093049;28;20112;-65
2021/12/07 06:03:13;;;;;;;6.72;1.77;;;;;;;17.48;51.84;100853.44;5093958;28;20027;-66
2021/12/07 06:05:41;;;;;;;7.15;1.65;;;;;;;17.49;52.23;100854.28;5093938;28;20028;-66
2021/12/07 06:08:07;;;;;;;5.20;1.40;;;;;;;17.50;52.33;100854.16;5092976;28;20052;-65
2021/12/07 06:10:33;;;;;;;5.45;1.40;;;;;;;17.51;52.03;100849.72;5093715;28;20521;-64
2021/12/07 06:12:58;;;;;;;5.68;1.30;;;;;;;17.53;52.20;100856.56;5092698;28;20387;-66
2021/12/07 06:15:26;;;;;;;4.70;1.52;;;;;;;17.53;52.05;100861.81;5093476;28;20044;-65
2021/12/07 06:17:53;;;;;;;5.43;1.40;;;;;;;17.57;52.11;100851.88;5093351;28;20085;-66
2021/12/07 06:20:19;;;;;;;4.90;1.17;;;;;;;17.57;51.85;100844.78;5092598;28;20028;-65
2021/12/07 06:22:44;;;;;;;5.85;1.25;;;;;;;17.60;51.75;100854.28;5093009;28;20020;-66
2021/12/07 06:25:10;;;;;;;6.72;1.40;;;;;;;17.60;51.92;100859.53;5093499;28;20367;-66
2021/12/07 06:27:38;;;;;;;6.88;1.77;;;;;;;17.62;51.64;100862.06;5092495;28;20042;-66
2021/12/07 06:30:05;;;;;;;6.60;1.25;;;;;;;17.64;51.31;100862.75;5093113;28;20028;-65
2021/12/07 06:32:30;;;;;;;4.22;1.30;;;;;;;17.64;51.21;100871.53;5093235;28;20032;-66
2021/12/07 06:34:55;;;;;;;6.28;1.30;;;;;;;17.66;51.13;100868.78;5092108;28;20024;-66
2021/12/07 06:37:21;;;;;;;5.53;1.30;;;;;;;17.66;51.29;100869.59;5092323;28;20459;-65
2021/12/07 06:39:46;;;;;;;5.68;1.45;;;;;;;17.69;50.91;100873.78;5092928;28;20099;-65
2021/12/07 06:42:11;;;;;;;6.07;1.50;;;;;;;17.69;50.72;100872.00;5092413;28;20400;-66
2021/12/07 06:44:37;;;;;;;5.63;1.83;;;;;;;17.71;51.08;100870.06;5093048;28;20514;-65
2021/12/07 06:47:03;;;;;;;4.93;1.40;;;;;;;17.72;50.90;100874.41;5092794;28;20027;-65
2021/12/07 06:49:29;;;;;;;4.22;1.27;;;;;;;17.73;50.93;100869.94;5092110;28;20395;-66
2021/12/07 06:51:54;;;;;;;5.45;2.10;;;;;;;17.74;50.99;100872.47;5092406;28;20027;-65
2021/12/07 06:54:23;;;;;;;7.20;1.85;;;;;;;17.74;50.58;100866.38;5092834;28;20111;-65
2021/12/07 06:56:48;;;;;;;5.40;1.38;;;;;;;17.75;51.04;100868.03;5091912;28;20036;-66
2021/12/07 06:59:14;;;;;;;4.57;1.35;;;;;;;17.75;50.97;100874.16;5092923;28;20070;-66
2021/12/07 07:01:39;;;;;;;5.50;1.50;;;;;;;17.75;50.83;100876.78;5092837;28;20102;-66
2021/12/07 07:04:04;;;;;;;6.45;1.52;;;;;;;17.76;50.90;100874.97;5092106;28;20028;-66
2021/12/07 07:06:33;;;;;;;6.10;1.45;;;;;;;17.75;50.76;100879.44;5092544;28;20023;-66
2021/12/07 07:08:58;;;;;;;5.32;1.55;;;;;;;17.78;51.05;100880.97;5092628;28;20030;-67
2021/12/07 07:11:25;;;;;;;5.55;1.33;;;;;;;17.79;50.54;100884.47;5092136;28;20036;-66
2021/12/07 07:13:50;;;;;;;7.05;1.48;;;;;;;17.79;49.29;100885.28;5092563;28;20055;-67
2021/12/07 07:16:16;;;;;;;9.80;2.17;;;;;;;17.80;49.45;100886.13;5091504;28;20158;-67
2021/12/07 07:18:42;;;;;;;5.63;1.55;;;;;;;17.81;49.79;100880.72;5092199;28;20025;-65
2021/12/07 07:21:08;;;;;;;4.18;1.52;;;;;;;17.83;49.86;100877.97;5092542;28;20391;-67
2021/12/07 07:23:34;;;;;;;7.60;2.08;;;;;;;17.84;49.87;100877.00;5091952;28;20019;-66
2021/12/07 07:26:00;;;;;;;6.03;1.58;;;;;;;17.85;49.65;100884.81;5091997;28;20531;-68
2021/12/07 07:28:29;;;;;;;7.30;1.52;;;;;;;17.87;49.62;100892.59;5093079;28;20024;-68
2021/12/07 07:30:55;;;;;;;6.60;1.38;;;;;;;17.89;49.82;100904.69;5092330;28;20105;-69
2021/12/07 07:33:20;;;;;;;4.15;1.30;;;;;;;17.89;49.48;100903.88;5092368;28;20042;-67
2021/12/07 07:35:47;;;;;;;6.97;1.50;;;;;;;17.90;49.44;100910.84;5091950;28;20107;-66
2021/12/07 07:38:13;;;;;;;5.00;1.40;;;;;;;17.92;49.63;100895.72;5091891;28;20101;-68
2021/12/07 07:40:39;;;;;;;7.28;1.58;;;;;;;17.92;49.43;100896.56;5092525;28;20027;-66
2021/12/07 07:43:04;;;;;;;6.85;1.58;;;;;;;17.93;49.51;100902.69;5092529;28;20020;-66
2021/12/07 07:45:30;;;;;;;4.38;1.30;;;;;;;17.95;49.86;100895.47;5091781;28;20361;-67
2021/12/07 07:47:55;;;;;;;5.22;1.60;;;;;;;17.95;49.85;100896.31;5093721;28;20037;-66
2021/12/07 07:50:27;;;;;;;5.38;1.27;;;;;;;17.99;49.61;100899.56;5096403;28;20028;-67
2021/12/07 07:52:55;;;;;;;6.10;1.85;;;;;;;17.99;49.83;100896.94;5095782;28;20020;-67
2021/12/07 07:55:20;;;;;;;5.85;1.65;;;;;;;18.00;49.81;100890.69;5096689;28;20030;-69
2021/12/07 07:57:46;;;;;;;4.80;1.33;;;;;;;18.00;50.07;100888.03;5096306;28;20028;-66
2021/12/07 08:00:18;;;;;;;6.45;1.83;;;;;;;18.03;49.61;100885.16;5095887;28;20383;-67
2021/12/07 08:02:44;;;;;;;5.93;1.60;;;;;;;18.03;49.98;100879.06;5096351;28;20035;-65
2021/12/07 08:05:11;;;;;;;5.53;1.27;;;;;;;18.03;49.84;100890.44;5097349;28;20028;-67
2021/12/07 08:07:36;;;;;;;5.30;1.40;;;;;;;18.05;49.93;100885.88;5096117;28;20035;-65
2021/12/07 08:10:04;;;;;;;7.55;1.80;;;;;;;18.04;47.97;100889.47;5097106;28;20548;-68
2021/12/07 08:12:29;;;;;;;5.65;1.60;;;;;;;17.99;48.99;100893.44;5096379;28;20020;-66
2021/12/07 08:14:54;;;;;;;5.93;1.92;;;;;;;18.00;49.86;100895.94;5097065;28;20040;-67
2021/12/07 08:17:22;;;;;;;7.18;1.75;;;;;;;18.02;50.44;100899.28;5096770;28;20114;-67
2021/12/07 08:19:48;;;;;;;6.05;1.70;;;;;;;18.02;49.74;100907.19;5097665;28;20415;-66
2021/12/07 08:22:19;;;;;;;4.40;1.27;;;;;;;18.04;49.90;100920.25;5099365;28;20020;-67
2021/12/07 08:24:45;;;;;;;5.53;1.58;;;;;;;18.05;50.14;100914.03;5098223;28;20024;-69
2021/12/07 08:27:12;;;;;;;6.90;1.35;;;;;;;18.09;50.32;100923.41;5098388;28;20024;-65
2021/12/07 08:29:37;;;;;;;4.80;1.38;;;;;;;18.21;50.37;100927.66;5102515;28;20043;-65
2021/12/07 08:32:03;;;;;;;4.63;1.30;;;;;;;18.35;50.42;100923.09;5098517;28;20043;-67
2021/12/07 08:34:29;;;;;;;8.73;1.67;;;;;;;18.43;50.09;100932.06;5100462;28;20031;-68
2021/12/07 08:36:54;;;;;;;5.13;1.80;;;;;;;18.46;49.41;100923.88;5105115;28;20448;-68
2021/12/07 08:39:19;;;;;;;7.05;1.40;;;;;;;18.52;49.49;100934.91;5106245;28;20030;-66
2021/12/07 08:41:47;;;;;;;6.15;1.70;;;;;;;18.56;49.14;100928.44;5106734;28;20031;-67
2021/12/07 08:44:13;;;;;;;6.90;1.73;;;;;;;18.52;49.08;100930.50;5101244;28;20030;-67
2021/12/07 08:46:42;;;;;;;8.13;1.48;;;;;;;18.45;49.23;100930.16;5097182;28;20020;-69
2021/12/07 08:49:07;;;;;;;7.45;2.08;;;;;;;18.41;49.44;100927.88;5094485;28;20460;-67
2021/12/07 08:51:33;;;;;;;6.47;1.60;;;;;;;18.35;49.53;100913.38;5094853;28;20047;-68
2021/12/07 08:59:36;;;;;;;5.55;1.58;;;;;;;18.31;49.86;100919.88;5094961;28;20096;-67
2021/12/07 08:59:44;;;;;;;5.03;1.47;;;;;;;18.28;50.27;100912.22;5094616;28;20078;-68
2021/12/07 09:02:12;;;;;;;7.75;2.08;;;;;;;18.20;49.84;100891.72;5094415;28;20364;-67
2021/12/07 09:04:37;;;;;;;5.72;1.45;;;;;;;18.25;50.23;100900.09;5094954;28;20024;-67
2021/12/07 09:07:06;;;;;;;8.82;2.38;;;;;;;18.27;49.97;100895.53;5094623;28;20036;-67
2021/12/07 09:09:32;;;;;;;5.93;1.50;;;;;;;18.25;50.08;100886.91;5093160;28;20558;-68
2021/12/07 09:11:58;;;;;;;4.95;1.30;;;;;;;18.25;50.15;100886.06;5093617;28;20143;-67
2021/12/07 09:14:24;;;;;;;6.03;1.77;;;;;;;18.26;50.12;100891.22;5094494;28;20097;-67
2021/12/07 09:16:53;;;;;;;5.18;1.42;;;;;;;18.25;50.47;100883.44;5093815;28;20028;-67
2021/12/07 09:19:22;;;;;;;7.65;1.70;;;;;;;18.25;50.75;100888.72;5094068;28;20487;-66
2021/12/07 09:21:49;;;;;;;5.47;1.42;;;;;;;18.25;50.36;100896.63;5094377;28;20372;-69
2021/12/07 09:24:16;;;;;;;13.63;1.65;;;;;;;18.23;48.84;100893.25;5093738;28;20396;-67
2021/12/07 09:26:42;;;;;;;5.63;1.77;;;;;;;18.23;49.68;100895.88;5094438;28;20024;-67
2021/12/07 09:29:07;;;;;;;5.43;1.30;;;;;;;18.21;50.21;100889.91;5094307;28;20035;-67
2021/12/07 09:31:33;;;;;;;3.40;1.30;;;;;;;18.24;49.83;100895.78;5093669;28;20052;-66
2021/12/07 09:34:06;;;;;;;5.95;1.40;;;;;;;18.24;49.86;100890.50;5094440;28;20453;-70
2021/12/07 09:36:32;;;;;;;5.65;1.48;;;;;;;18.33;50.42;100885.47;5094879;28;20051;-67
2021/12/07 09:38:57;;;;;;;4.70;1.30;;;;;;;18.47;50.31;100883.34;5093687;28;20111;-68
2021/12/07 09:41:23;;;;;;;5.10;1.63;;;;;;;18.60;49.98;100892.91;5094507;28;20111;-67
2021/12/07 09:43:49;;;;;;;12.25;1.80;;;;;;;18.70;49.73;100892.97;5094286;28;20016;-67
2021/12/07 09:46:15;;;;;;;6.80;1.30;;;;;;;18.79;49.43;100887.78;5093875;28;20040;-70
2021/12/07 09:48:42;;;;;;;5.40;1.35;;;;;;;18.88;49.84;100894.09;5094268;28;20391;-66
2021/12/07 09:51:10;;;;;;;5.68;1.38;;;;;;;18.92;49.48;100892.06;5093724;28;20027;-67
2021/12/07 09:53:35;;;;;;;5.10;1.40;;;;;;;18.89;49.28;100894.97;5094123;28;20036;-67
2021/12/07 09:56:03;;;;;;;5.72;1.40;;;;;;;18.82;49.26;100894.63;5094846;28;20111;-66
2021/12/07 09:58:29;;;;;;;7.85;1.70;;;;;;;18.87;49.56;100888.94;5093694;28;20055;-68
2021/12/07 10:00:55;;;;;;;6.45;1.45;;;;;;;18.94;49.60;100885.66;5095098;28;20024;-70
2021/12/07 10:03:23;;;;;;;7.78;1.63;;;;;;;19.00;49.83;100877.22;5094569;28;20173;-69
2021/12/07 10:05:50;;;;;;;5.78;1.42;;;;;;;19.05;49.51;100881.31;5092561;28;20024;-67
2021/12/07 10:08:16;;;;;;;5.55;1.30;;;;;;;18.98;49.31;100876.53;5093914;28;20039;-67
2021/12/07 10:10:45;;;;;;;5.10;1.45;;;;;;;18.90;49.13;100886.91;5093118;28;20454;-68
2021/12/07 10:13:11;;;;;;;5.95;1.52;;;;;;;18.82;49.45;100876.97;5092858;28;20107;-68
2021/12/07 10:15:41;;;;;;;7.22;1.23;;;;;;;18.77;49.64;100867.72;5093642;28;20051;-68
2021/12/07 10:18:13;;;;;;;6.95;1.67;;;;;;;18.72;49.72;100865.47;5093278;28;20020;-66
2021/12/07 10:20:54;;;;;;;6.00;1.40;;;;;;;18.65;50.05;100854.59;5092734;28;20031;-68
2021/12/07 10:23:20;;;;;;;5.55;1.30;;;;;;;18.62;50.35;100857.50;5093517;28;20028;-66
2021/12/07 10:25:52;;;;;;;4.47;1.33;;;;;;;18.62;49.97;100862.75;5092990;28;20067;-67
2021/12/07 10:28:53;;;;;;;6.30;1.30;;;;;;;18.60;49.49;100859.44;5092413;28;20402;-65
2021/12/07 10:31:30;;;;;;;5.00;1.45;;;;;;;18.60;49.19;100858.59;5088940;28;20033;-66
2021/12/07 10:34:03;;;;;;;5.88;1.40;;;;;;;18.64;49.23;100860.00;5092123;28;20035;-63
2021/12/07 10:36:35;;;;;;;6.35;1.52;;;;;;;18.66;49.33;100855.44;5093023;28;20039;-60
2021/12/07 10:39:12;;;;;;;4.47;1.30;;;;;;;18.66;48.95;100847.53;5092613;28;20055;-62
2021/12/07 10:41:44;;;;;;;5.25;1.13;;;;;;;18.63;48.99;100838.06;5092421;28;20068;-64
2021/12/07 10:44:12;;;;;;;7.10;1.42;;;;;;;18.61;49.37;100829.44;5093162;28;20069;-63
2021/12/07 10:46:45;;;;;;;5.10;1.27;;;;;;;18.60;49.89;100832.22;5096627;28;20476;-65
2021/12/07 10:49:13;;;;;;;4.55;1.23;;;;;;;18.69;49.70;100823.50;5092821;28;20016;-67
2021/12/07 10:51:41;;;;;;;3.95;1.10;;;;;;;18.81;49.54;100821.63;5093417;28;20070;-68
2021/12/07 10:54:07;;;;;;;6.00;1.40;;;;;;;18.90;50.06;100820.03;5094055;28;20047;-73
2021/12/07 10:56:36;;;;;;;6.95;1.40;;;;;;;18.96;49.75;100809.81;5093231;28;20412;-68
2021/12/07 10:59:04;;;;;;;5.32;1.40;;;;;;;18.99;49.38;100806.91;5093166;28;20024;-67
2021/12/07 11:01:41;;;;;;;4.10;1.25;;;;;;;19.01;49.08;100799.69;5091112;28;20032;-66
2021/12/07 11:04:29;;;;;;;3.75;1.20;;;;;;;19.04;49.33;100798.56;5094234;28;20020;-66
2021/12/07 11:07:21;;;;;;;4.38;1.50;;;;;;;19.07;49.09;100786.91;5093105;28;20024;-69
2021/12/07 11:10:09;;;;;;;5.63;1.23;;;;;;;19.04;48.87;100769.50;5092014;28;20123;-67
2021/12/07 11:13:06;;;;;;;6.07;1.30;;;;;;;18.98;49.11;100772.72;5092661;28;20544;-67
2021/12/07 11:15:34;;;;;;;4.47;1.55;;;;;;;18.89;49.37;100761.13;5091722;28;20055;-66
2021/12/07 11:18:04;;;;;;;8.80;1.38;;;;;;;18.80;49.82;100759.22;5092424;28;20050;-66
2021/12/07 11:20:31;;;;;;;4.60;1.40;;;;;;;18.75;49.70;100764.06;5092600;28;20111;-67
2021/12/07 11:23:26;;;;;;;6.13;1.45;;;;;;;18.66;49.86;100749.88;5091019;28;20036;-66
2021/12/07 11:31:17;;;;;;;5.55;1.40;;;;;;;18.58;49.98;100745.22;5092736;28;20425;-67
2021/12/07 11:33:44;;;;;;;5.30;1.48;;;;;;;18.63;49.64;100748.31;5094282;28;20024;-65
2021/12/07 11:36:31;;;;;;;6.18;1.23;;;;;;;18.70;49.44;100753.06;5092731;28;20027;-67
2021/12/07 11:38:58;;;;;;;4.72;1.20;;;;;;;18.75;49.38;100750.88;5092510;28;20511;-67
2021/12/07 11:41:31;;;;;;;5.70;1.40;;;;;;;18.83;49.87;100748.41;5092622;28;20451;-68
2021/12/07 11:44:08;;;;;;;5.15;1.35;;;;;;;18.84;49.80;100750.13;5091488;28;20067;-68
2021/12/07 11:46:36;;;;;;;5.60;1.73;;;;;;;18.80;49.54;100749.53;5092457;28;20024;-66
2021/12/07 11:49:25;;;;;;;5.70;1.60;;;;;;;18.73;49.32;100740.44;5092206;28;20020;-67
2021/12/07 11:51:56;;;;;;;5.95;1.40;;;;;;;18.68;49.59;100734.72;5091342;28;20046;-68
2021/12/07 11:54:27;;;;;;;8.65;1.67;;;;;;;18.64;49.72;100728.88;5092125;28;20074;-67
2021/12/07 11:56:53;;;;;;;7.05;1.50;;;;;;;18.60;50.30;100727.44;5092010;28;20047;-62
2021/12/07 11:59:18;;;;;;;5.47;1.50;;;;;;;18.57;50.21;100719.78;5091446;28;20024;-67
2021/12/07 12:01:47;;;;;;;5.45;1.25;;;;;;;18.56;50.57;100714.66;5091905;28;20436;-67
2021/12/07 12:04:14;;;;;;;8.27;1.33;;;;;;;18.52;50.44;100707.94;5092116;28;20131;-65
2021/12/07 12:06:42;;;;;;;6.30;1.42;;;;;;;18.51;50.58;100712.41;5090882;28;20439;-66
2021/12/07 12:09:08;;;;;;;5.70;1.40;;;;;;;18.50;50.63;100700.19;5092762;28;20059;-62
2021/12/07 12:11:33;;;;;;;6.40;1.45;;;;;;;18.56;50.62;100702.28;5092778;28;20440;-63
2021/12/07 12:14:04;;;;;;;6.13;1.50;;;;;;;18.65;50.65;100695.38;5092985;28;20064;-63
2021/12/07 12:16:50;;;;;;;5.97;1.40;;;;;;;18.73;50.48;100695.56;5093045;28;20123;-66
2021/12/07 12:19:54;;;;;;;6.80;1.88;;;;;;;18.73;47.09;100687.66;5090456;28;20127;-66
2021/12/07 12:22:41;;;;;;;4.22;1.33;;;;;;;18.68;49.52;100679.28;5092067;28;20028;-64
2021/12/07 12:25:12;;;;;;;5.03;1.70;;;;;;;18.62;50.01;100679.81;5091956;28;20043;-66
2021/12/07 12:27:40;;;;;;;5.65;1.40;;;;;;;18.60;50.16;100671.19;5091150;28;20483;-67
2021/12/07 12:30:16;;;;;;;6.80;1.33;;;;;;;18.57;50.06;100668.81;5092037;28;20069;-65
2021/12/07 12:32:44;;;;;;;5.97;1.33;;;;;;;18.56;50.38;100664.50;5091216;28;20411;-65
2021/12/07 12:35:11;;;;;;;8.60;1.50;;;;;;;18.54;50.26;100654.06;5093717;28;20024;-66
2021/12/07 12:37:38;;;;;;;6.35;1.42;;;;;;;18.54;50.55;100653.25;5095418;28;20069;-67
2021/12/07 12:40:12;;;;;;;5.93;1.27;;;;;;;18.51;50.56;100643.78;5094428;28;20042;-65
2021/12/07 12:42:42;;;;;;;5.65;1.52;;;;;;;18.52;50.46;100636.69;5095734;28;20024;-65
2021/12/07 12:45:27;;;;;;;5.30;1.40;;;;;;;18.49;50.96;100643.09;5095258;28;20542;-65
2021/12/07 12:48:07;;;;;;;5.43;1.50;;;;;;;18.47;50.79;100614.19;5094247;28;20451;-66
2021/12/07 12:50:46;;;;;;;7.38;1.77;;;;;;;18.47;50.92;100613.38;5095324;28;20028;-65
2021/12/07 12:53:34;;;;;;;6.30;1.17;;;;;;;18.46;51.05;100603.78;5095379;28;20024;-66
2021/12/07 12:56:11;;;;;;;5.53;1.63;;;;;;;18.46;50.50;100591.41;5094310;28;20039;-66
2021/12/07 12:58:47;;;;;;;4.45;1.20;;;;;;;18.46;50.64;100574.75;5095263;28;20035;-65
2021/12/07 13:01:26;;;;;;;5.43;1.27;;;;;;;18.45;49.86;100573.91;5094671;28;20116;-65
2021/12/07 13:03:57;;;;;;;6.10;1.35;;;;;;;18.45;49.98;100567.78;5095170;28;20312;-65
2021/12/07 13:06:32;;;;;;;6.88;1.63;;;;;;;18.46;49.82;100556.28;5095791;28;20019;-65
2021/12/07 13:09:09;;;;;;;7.72;1.85;;;;;;;18.44;49.77;100540.56;5094673;28;20050;-64